createdAt,value
2018-11-02T00:00:44.730Z,45.70
2018-11-02T00:01:44.732Z,33.10
2018-11-02T00:02:44.718Z,54.10
2018-11-02T00:03:44.972Z,43.90
2018-11-02T00:04:44.697Z,41.80
2018-11-02T00:05:44.689Z,46.70
2018-11-02T00:06:44.689Z,53.00
2018-11-02T00:07:44.669Z,50.60
2018-11-02T00:08:44.693Z,46.40
2018-11-02T00:09:44.673Z,43.10
2018-11-02T00:10:44.649Z,42.30
2018-11-02T00:11:44.632Z,41.00
2018-11-02T00:12:44.631Z,41.40
2018-11-02T00:13:44.618Z,36.20
2018-11-02T00:14:44.637Z,40.50
2018-11-02T00:15:44.637Z,39.40
2018-11-02T00:16:44.668Z,37.40
2018-11-02T00:17:44.604Z,42.00
2018-11-02T00:18:44.611Z,40.00
2018-11-02T00:19:44.602Z,33.90
2018-11-02T00:20:44.587Z,29.40
2018-11-02T00:21:44.599Z,33.30
2018-11-02T00:22:44.561Z,34.20
2018-11-02T00:23:44.628Z,41.90
2018-11-02T00:24:44.733Z,36.10
2018-11-02T00:25:44.577Z,40.30
2018-11-02T00:26:44.573Z,35.50
2018-11-02T00:27:44.533Z,37.30
2018-11-02T00:28:44.541Z,37.20
2018-11-02T00:29:44.627Z,35.60
2018-11-02T00:30:44.503Z,34.10
2018-11-02T00:31:44.573Z,35.10
2018-11-02T00:32:44.540Z,37.00
2018-11-02T00:33:44.542Z,38.10
2018-11-02T00:34:44.792Z,44.80
2018-11-02T00:35:44.527Z,46.60
2018-11-02T00:36:44.492Z,38.50
2018-11-02T00:37:44.484Z,38.60
2018-11-02T00:38:44.481Z,30.80
2018-11-02T00:39:44.458Z,34.70
2018-11-02T00:40:44.762Z,33.80
2018-11-02T00:41:44.471Z,35.20
2018-11-02T00:42:44.460Z,40.30
2018-11-02T00:43:44.441Z,33.50
2018-11-02T00:44:44.435Z,37.70
2018-11-02T00:45:44.505Z,38.10
2018-11-02T00:46:44.400Z,35.90
2018-11-02T00:47:44.401Z,33.20
2018-11-02T00:48:44.404Z,38.10
2018-11-02T00:49:44.396Z,42.80
2018-11-02T00:50:44.677Z,38.70
2018-11-02T00:51:44.370Z,40.70
2018-11-02T00:52:44.364Z,37.00
2018-11-02T00:53:44.410Z,39.60
2018-11-02T00:54:44.351Z,34.70
2018-11-02T00:55:44.482Z,37.90
2018-11-02T00:56:44.389Z,31.80
2018-11-02T00:57:44.316Z,41.00
2018-11-02T00:58:44.316Z,39.60
2018-11-02T00:59:44.323Z,46.40
2018-11-02T01:00:44.316Z,40.10
2018-11-02T01:01:44.298Z,37.00
2018-11-02T01:02:44.284Z,35.80
2018-11-02T01:03:44.283Z,39.40
2018-11-02T01:04:44.896Z,42.10
2018-11-02T01:05:44.290Z,42.20
2018-11-02T01:06:44.261Z,39.50
2018-11-02T01:07:44.267Z,40.00
2018-11-02T01:08:44.256Z,34.40
2018-11-02T01:09:44.236Z,34.90
2018-11-02T01:10:44.226Z,44.60
2018-11-02T01:11:44.312Z,45.60
2018-11-02T01:12:44.237Z,37.70
2018-11-02T01:13:44.206Z,37.10
2018-11-02T01:14:44.224Z,46.50
2018-11-02T01:15:44.239Z,43.10
2018-11-02T01:16:44.267Z,43.70
2018-11-02T01:17:44.242Z,38.40
2018-11-02T01:18:44.182Z,40.10
2018-11-02T01:19:44.154Z,47.80
2018-11-02T01:20:44.168Z,42.00
2018-11-02T01:21:44.175Z,44.10
2018-11-02T01:22:44.137Z,45.50
2018-11-02T01:23:44.142Z,44.10
2018-11-02T01:24:44.134Z,46.50
2018-11-02T01:25:44.127Z,46.60
2018-11-02T01:26:44.114Z,38.00
2018-11-02T01:27:44.106Z,41.80
2018-11-02T01:28:44.104Z,50.20
2018-11-02T01:29:44.078Z,48.60
2018-11-02T01:30:44.081Z,39.50
2018-11-02T01:31:44.115Z,43.00
2018-11-02T01:32:44.123Z,43.60
2018-11-02T01:33:44.052Z,45.00
2018-11-02T01:34:44.051Z,44.30
2018-11-02T01:35:44.072Z,41.70
2018-11-02T01:36:44.029Z,45.40
2018-11-02T01:37:44.039Z,44.70
2018-11-02T01:38:44.042Z,46.50
2018-11-02T01:39:44.020Z,46.40
2018-11-02T01:40:44.017Z,47.90
2018-11-02T01:41:44.005Z,42.50
2018-11-02T01:42:44.335Z,53.00
2018-11-02T01:43:43.983Z,38.50
2018-11-02T01:44:43.968Z,40.60
2018-11-02T01:45:43.984Z,45.60
2018-11-02T01:46:43.966Z,37.70
2018-11-02T01:47:43.955Z,43.10
2018-11-02T01:48:43.949Z,41.40
2018-11-02T01:49:43.923Z,55.50
2018-11-02T01:50:43.927Z,43.60
2018-11-02T01:51:43.914Z,52.70
2018-11-02T01:52:43.940Z,55.70
2018-11-02T01:53:43.924Z,57.00
2018-11-02T01:54:43.912Z,51.40
2018-11-02T01:55:43.888Z,59.40
2018-11-02T01:56:43.878Z,66.10
2018-11-02T01:57:43.890Z,76.60
2018-11-02T01:58:44.015Z,72.30
2018-11-02T01:59:43.856Z,79.60
2018-11-02T02:00:43.845Z,70.60
2018-11-02T02:01:43.843Z,68.80
2018-11-02T02:02:43.826Z,66.80
2018-11-02T02:03:43.832Z,78.90
2018-11-02T02:04:43.840Z,72.80
2018-11-02T02:05:43.826Z,81.70
2018-11-02T02:06:43.835Z,82.60
2018-11-02T02:07:43.820Z,78.40
2018-11-02T02:08:43.815Z,80.00
2018-11-02T02:09:43.825Z,80.80
2018-11-02T02:10:43.765Z,76.20
2018-11-02T02:11:43.781Z,79.00
2018-11-02T02:12:43.759Z,89.30
2018-11-02T02:13:43.750Z,77.00
2018-11-02T02:14:43.796Z,70.80
2018-11-02T02:15:43.730Z,79.20
2018-11-02T02:16:43.725Z,83.50
2018-11-02T02:17:43.701Z,89.20
2018-11-02T02:18:43.727Z,96.00
2018-11-02T02:19:43.707Z,79.30
2018-11-02T02:20:43.697Z,78.90
2018-11-02T02:21:43.731Z,84.70
2018-11-02T02:22:43.705Z,85.70
2018-11-02T02:23:43.684Z,79.00
2018-11-02T02:24:44.057Z,91.50
2018-11-02T02:25:43.643Z,92.60
2018-11-02T02:26:43.661Z,94.30
2018-11-02T02:27:43.630Z,75.90
2018-11-02T02:28:43.649Z,96.30
2018-11-02T02:29:43.621Z,80.40
2018-11-02T02:30:43.958Z,88.30
2018-11-02T02:31:43.596Z,83.10
2018-11-02T02:32:43.628Z,78.20
2018-11-02T02:33:43.596Z,82.60
2018-11-02T02:34:43.583Z,78.20
2018-11-02T02:35:43.584Z,77.50
2018-11-02T02:36:43.994Z,88.10
2018-11-02T02:37:43.570Z,91.50
2018-11-02T02:38:43.531Z,102.10
2018-11-02T02:39:43.575Z,84.90
2018-11-02T02:40:43.542Z,88.70
2018-11-02T02:41:43.524Z,97.50
2018-11-02T02:42:43.815Z,100.20
2018-11-02T02:43:43.499Z,77.20
2018-11-02T02:44:43.552Z,86.00
2018-11-02T02:45:43.497Z,88.80
2018-11-02T02:46:43.475Z,87.30
2018-11-02T02:47:43.562Z,86.80
2018-11-02T02:48:43.505Z,87.60
2018-11-02T02:49:43.457Z,87.30
2018-11-02T02:50:43.441Z,94.30
2018-11-02T02:51:43.429Z,81.10
2018-11-02T02:52:43.487Z,81.00
2018-11-02T02:53:43.535Z,91.20
2018-11-02T02:54:43.405Z,86.70
2018-11-02T02:55:43.405Z,87.80
2018-11-02T02:56:43.401Z,95.20
2018-11-02T02:57:43.390Z,87.60
2018-11-02T02:58:43.402Z,83.40
2018-11-02T02:59:43.386Z,87.00
2018-11-02T03:00:43.369Z,85.00
2018-11-02T03:01:43.370Z,81.90
2018-11-02T03:02:43.349Z,97.80
2018-11-02T03:03:43.350Z,112.00
2018-11-02T03:04:43.372Z,101.50
2018-11-02T03:05:43.328Z,106.80
2018-11-02T03:06:43.332Z,92.90
2018-11-02T03:07:43.304Z,85.50
2018-11-02T03:08:43.288Z,83.00
2018-11-02T03:09:43.302Z,88.00
2018-11-02T03:10:43.444Z,93.00
2018-11-02T03:11:43.292Z,103.20
2018-11-02T03:12:43.253Z,93.40
2018-11-02T03:13:43.275Z,83.50
2018-11-02T03:14:43.538Z,80.40
2018-11-02T03:15:43.229Z,83.00
2018-11-02T03:16:43.244Z,85.20
2018-11-02T03:17:43.224Z,96.70
2018-11-02T03:18:43.416Z,91.80
2018-11-02T03:19:43.204Z,96.50
2018-11-02T03:20:43.515Z,90.80
2018-11-02T03:21:43.205Z,92.60
2018-11-02T03:22:43.371Z,95.30
2018-11-02T03:23:43.181Z,84.10
2018-11-02T03:24:43.169Z,83.50
2018-11-02T03:25:43.168Z,85.50
2018-11-02T03:26:43.146Z,92.30
2018-11-02T03:27:43.148Z,84.80
2018-11-02T03:28:43.121Z,99.70
2018-11-02T03:29:43.131Z,87.40
2018-11-02T03:30:43.150Z,95.20
2018-11-02T03:31:43.100Z,79.20
2018-11-02T03:32:43.095Z,82.70
2018-11-02T03:33:43.095Z,85.60
2018-11-02T03:34:43.096Z,91.50
2018-11-02T03:35:43.077Z,81.90
2018-11-02T03:36:43.065Z,96.10
2018-11-02T03:37:43.065Z,89.50
2018-11-02T03:38:43.054Z,99.70
2018-11-02T03:39:43.054Z,102.30
2018-11-02T03:40:43.021Z,103.00
2018-11-02T03:41:43.032Z,76.90
2018-11-02T03:42:43.012Z,82.20
2018-11-02T03:43:43.009Z,91.90
2018-11-02T03:44:42.999Z,93.40
2018-11-02T03:45:42.974Z,108.00
2018-11-02T03:46:43.259Z,93.60
2018-11-02T03:47:43.011Z,95.90
2018-11-02T03:48:42.974Z,103.20
2018-11-02T03:49:42.968Z,84.60
2018-11-02T03:50:42.985Z,92.60
2018-11-02T03:51:43.035Z,102.60
2018-11-02T03:52:42.911Z,109.80
2018-11-02T03:53:42.964Z,90.70
2018-11-02T03:54:42.938Z,93.80
2018-11-02T03:55:43.109Z,99.20
2018-11-02T03:56:43.002Z,103.60
2018-11-02T03:57:42.869Z,83.30
2018-11-02T03:58:42.880Z,87.40
2018-11-02T03:59:42.880Z,75.40
2018-11-02T04:00:42.899Z,93.20
2018-11-02T04:01:42.833Z,100.10
2018-11-02T04:02:42.835Z,108.50
2018-11-02T04:03:42.826Z,115.50
2018-11-02T04:04:42.825Z,107.80
2018-11-02T04:05:42.852Z,94.30
2018-11-02T04:06:42.815Z,97.30
2018-11-02T04:07:42.929Z,79.70
2018-11-02T04:08:42.811Z,87.00
2018-11-02T04:09:42.807Z,90.90
2018-11-02T04:10:42.749Z,89.70
2018-11-02T04:11:42.820Z,88.00
2018-11-02T04:12:42.730Z,103.10
2018-11-02T04:13:42.995Z,92.00
2018-11-02T04:14:42.774Z,92.10
2018-11-02T04:15:42.768Z,73.40
2018-11-02T04:16:42.693Z,97.00
2018-11-02T04:17:42.700Z,85.60
2018-11-02T04:18:42.683Z,123.80
2018-11-02T04:19:42.787Z,117.90
2018-11-02T04:20:42.692Z,128.40
2018-11-02T04:21:42.683Z,113.10
2018-11-02T04:22:42.676Z,92.20
2018-11-02T04:23:42.631Z,110.20
2018-11-02T04:24:42.946Z,109.80
2018-11-02T04:25:42.619Z,104.80
2018-11-02T04:26:42.631Z,102.10
2018-11-02T04:27:42.604Z,129.10
2018-11-02T04:28:42.644Z,99.50
2018-11-02T04:29:42.596Z,91.00
2018-11-02T04:30:42.643Z,99.10
2018-11-02T04:31:42.583Z,99.00
2018-11-02T04:32:42.606Z,122.70
2018-11-02T04:33:42.576Z,107.80
2018-11-02T04:34:42.596Z,120.30
2018-11-02T04:35:42.586Z,114.10
2018-11-02T04:36:42.531Z,109.60
2018-11-02T04:37:42.512Z,125.70
2018-11-02T04:38:42.509Z,115.00
2018-11-02T04:39:42.515Z,97.50
2018-11-02T04:40:42.490Z,109.90
2018-11-02T04:41:42.511Z,89.00
2018-11-02T04:42:42.481Z,99.30
2018-11-02T04:43:42.482Z,112.50
2018-11-02T04:44:42.460Z,112.20
2018-11-02T04:45:42.429Z,111.90
2018-11-02T04:46:42.464Z,112.00
2018-11-02T04:47:42.436Z,109.80
2018-11-02T04:48:42.440Z,115.50
2018-11-02T04:49:42.438Z,104.50
2018-11-02T04:50:42.406Z,109.10
2018-11-02T04:51:42.438Z,106.00
2018-11-02T04:52:42.371Z,111.30
2018-11-02T04:53:42.371Z,113.60
2018-11-02T04:54:42.363Z,122.50
2018-11-02T04:55:42.632Z,125.90
2018-11-02T04:56:42.348Z,74.50
2018-11-02T04:57:42.340Z,99.30
2018-11-02T04:58:42.382Z,96.70
2018-11-02T04:59:42.330Z,121.60
2018-11-02T05:00:42.335Z,103.00
2018-11-02T05:01:42.624Z,113.80
2018-11-02T05:02:42.292Z,103.70
2018-11-02T05:03:42.310Z,118.50
2018-11-02T05:04:42.332Z,104.70
2018-11-02T05:05:42.331Z,123.80
2018-11-02T05:06:42.381Z,77.70
2018-11-02T05:07:42.244Z,94.20
2018-11-02T05:08:42.242Z,104.60
2018-11-02T05:09:42.319Z,131.90
2018-11-02T05:10:42.237Z,146.80
2018-11-02T05:11:42.245Z,118.80
2018-11-02T05:12:42.477Z,121.10
2018-11-02T05:13:42.202Z,104.10
2018-11-02T05:14:42.205Z,100.40
2018-11-02T05:15:42.239Z,118.90
2018-11-02T05:16:42.188Z,110.60
2018-11-02T05:17:42.281Z,117.20
2018-11-02T05:18:42.153Z,105.80
2018-11-02T05:19:42.146Z,110.60
2018-11-02T05:20:42.141Z,90.90
2018-11-02T05:21:42.124Z,102.30
2018-11-02T05:22:42.146Z,118.30
2018-11-02T05:23:42.109Z,126.60
2018-11-02T05:24:42.113Z,110.00
2018-11-02T05:25:42.098Z,111.20
2018-11-02T05:26:42.085Z,102.30
2018-11-02T05:27:42.122Z,108.50
2018-11-02T05:28:42.065Z,93.70
2018-11-02T05:29:42.062Z,96.00
2018-11-02T05:30:42.079Z,94.40
2018-11-02T05:31:42.021Z,107.50
2018-11-02T05:32:42.029Z,112.60
2018-11-02T05:33:42.115Z,105.90
2018-11-02T05:34:42.012Z,106.50
2018-11-02T05:35:42.011Z,123.30
2018-11-02T05:36:41.986Z,136.90
2018-11-02T05:37:41.973Z,99.40
2018-11-02T05:38:41.979Z,96.10
2018-11-02T05:39:41.983Z,125.50
2018-11-02T05:40:41.962Z,123.50
2018-11-02T05:41:41.949Z,120.80
2018-11-02T05:42:41.955Z,106.60
2018-11-02T05:43:41.927Z,105.90
2018-11-02T05:44:42.005Z,95.50
2018-11-02T05:45:41.906Z,107.00
2018-11-02T05:46:41.888Z,122.90
2018-11-02T05:47:41.909Z,80.30
2018-11-02T05:48:41.904Z,96.40
2018-11-02T05:49:41.879Z,122.80
2018-11-02T05:50:41.889Z,111.30
2018-11-02T05:51:41.871Z,99.90
2018-11-02T05:52:41.859Z,91.30
2018-11-02T05:53:41.850Z,99.10
2018-11-02T05:54:41.844Z,108.70
2018-11-02T05:55:41.848Z,124.70
2018-11-02T05:56:41.817Z,99.90
2018-11-02T05:57:41.843Z,121.60
2018-11-02T05:58:41.815Z,123.80
2018-11-02T05:59:41.783Z,129.40
2018-11-02T06:00:41.815Z,94.00
2018-11-02T06:01:41.876Z,110.10
2018-11-02T06:02:41.787Z,115.40
2018-11-02T06:03:41.771Z,112.30
2018-11-02T06:04:41.747Z,91.10
2018-11-02T06:05:41.752Z,125.80
2018-11-02T06:06:41.738Z,93.20
2018-11-02T06:07:41.795Z,82.00
2018-11-02T06:08:41.697Z,102.90
2018-11-02T06:09:41.696Z,93.90
2018-11-02T06:10:41.736Z,125.50
2018-11-02T06:11:41.712Z,95.50
2018-11-02T06:12:41.651Z,124.90
2018-11-02T06:13:41.709Z,103.80
2018-11-02T06:14:41.698Z,98.30
2018-11-02T06:15:41.656Z,125.90
2018-11-02T06:16:41.781Z,97.20
2018-11-02T06:17:41.637Z,108.70
2018-11-02T06:18:41.716Z,107.90
2018-11-02T06:19:41.628Z,104.50
2018-11-02T06:20:41.610Z,122.50
2018-11-02T06:21:41.599Z,136.00
2018-11-02T06:22:41.594Z,96.60
2018-11-02T06:23:41.552Z,121.70
2018-11-02T06:24:41.568Z,109.90
2018-11-02T06:25:41.574Z,95.10
2018-11-02T06:26:41.787Z,110.40
2018-11-02T06:27:41.574Z,97.00
2018-11-02T06:28:41.545Z,92.60
2018-11-02T06:29:41.524Z,108.40
2018-11-02T06:30:41.521Z,122.80
2018-11-02T06:31:41.594Z,100.80
2018-11-02T06:32:41.584Z,108.90
2018-11-02T06:33:41.481Z,120.90
2018-11-02T06:34:41.469Z,88.10
2018-11-02T06:35:41.519Z,92.30
2018-11-02T06:36:41.450Z,97.90
2018-11-02T06:37:41.463Z,109.80
2018-11-02T06:38:41.579Z,82.60
2018-11-02T06:39:41.569Z,111.40
2018-11-02T06:40:41.438Z,103.40
2018-11-02T06:41:41.412Z,87.20
2018-11-02T06:42:41.475Z,107.90
2018-11-02T06:43:41.421Z,111.70
2018-11-02T06:44:41.413Z,84.90
2018-11-02T06:45:41.372Z,114.20
2018-11-02T06:46:41.383Z,93.90
2018-11-02T06:47:41.409Z,95.10
2018-11-02T06:48:41.371Z,105.80
2018-11-02T06:49:41.342Z,87.50
2018-11-02T06:50:41.400Z,97.00
2018-11-02T06:51:41.329Z,80.10
2018-11-02T06:52:41.328Z,104.00
2018-11-02T06:53:41.320Z,85.80
2018-11-02T06:54:41.301Z,99.90
2018-11-02T06:55:41.274Z,81.40
2018-11-02T06:56:41.344Z,95.90
2018-11-02T06:57:41.279Z,113.00
2018-11-02T06:58:41.315Z,115.60
2018-11-02T06:59:41.450Z,124.70
2018-11-02T07:00:41.264Z,116.00
2018-11-02T07:01:41.239Z,99.00
2018-11-02T07:02:41.338Z,109.90
2018-11-02T07:03:41.283Z,99.80
2018-11-02T07:04:41.213Z,94.80
2018-11-02T07:05:41.217Z,79.40
2018-11-02T07:06:41.201Z,90.90
2018-11-02T07:07:41.361Z,93.40
2018-11-02T07:08:41.251Z,94.50
2018-11-02T07:09:41.224Z,83.60
2018-11-02T07:10:41.182Z,105.10
2018-11-02T07:11:41.207Z,94.70
2018-11-02T07:12:41.159Z,100.50
2018-11-02T07:13:41.143Z,116.60
2018-11-02T07:14:41.147Z,126.40
2018-11-02T07:15:41.161Z,96.70
2018-11-02T07:16:41.100Z,123.40
2018-11-02T07:17:41.121Z,102.60
2018-11-02T07:18:41.109Z,91.40
2018-11-02T07:19:41.098Z,91.50
2018-11-02T07:20:41.084Z,118.90
2018-11-02T07:21:41.073Z,105.80
2018-11-02T07:22:41.075Z,97.40
2018-11-02T07:23:41.082Z,86.10
2018-11-02T07:24:41.020Z,84.60
2018-11-02T07:25:41.083Z,74.60
2018-11-02T07:26:41.010Z,68.30
2018-11-02T07:27:41.041Z,82.50
2018-11-02T07:28:41.002Z,96.10
2018-11-02T07:29:41.095Z,93.00
2018-11-02T07:30:40.980Z,113.40
2018-11-02T07:31:40.991Z,98.60
2018-11-02T07:32:40.976Z,122.70
2018-11-02T07:33:40.962Z,133.20
2018-11-02T07:34:40.962Z,105.50
2018-11-02T07:35:41.024Z,107.50
2018-11-02T07:36:40.955Z,130.00
2018-11-02T07:37:40.920Z,95.80
2018-11-02T07:38:40.937Z,92.90
2018-11-02T07:39:40.909Z,100.30
2018-11-02T07:40:41.024Z,110.90
2018-11-02T07:41:40.883Z,124.20
2018-11-02T07:42:40.902Z,117.40
2018-11-02T07:43:40.893Z,104.50
2018-11-02T07:44:40.856Z,96.20
2018-11-02T07:45:40.879Z,96.20
2018-11-02T07:46:40.863Z,101.90
2018-11-02T07:47:40.903Z,115.40
2018-11-02T07:48:40.843Z,104.00
2018-11-02T07:49:40.858Z,98.00
2018-11-02T07:50:40.806Z,106.20
2018-11-02T07:51:41.070Z,106.90
2018-11-02T07:52:40.824Z,111.60
2018-11-02T07:53:40.798Z,122.70
2018-11-02T07:54:40.799Z,97.30
2018-11-02T07:55:40.777Z,114.00
2018-11-02T07:56:40.750Z,84.10
2018-11-02T07:57:40.917Z,106.40
2018-11-02T07:58:40.734Z,104.90
2018-11-02T07:59:40.730Z,108.00
2018-11-02T08:00:40.776Z,88.70
2018-11-02T08:01:40.745Z,115.80
2018-11-02T08:02:40.958Z,108.60
2018-11-02T08:03:40.724Z,107.90
2018-11-02T08:04:40.677Z,100.00
2018-11-02T08:05:40.682Z,113.40
2018-11-02T08:06:40.686Z,98.40
2018-11-02T08:07:40.677Z,95.90
2018-11-02T08:08:40.668Z,101.00
2018-11-02T08:09:40.641Z,84.20
2018-11-02T08:10:40.642Z,96.60
2018-11-02T08:11:40.728Z,124.00
2018-11-02T08:12:40.623Z,109.60
2018-11-02T08:13:40.626Z,90.70
2018-11-02T08:14:40.615Z,109.30
2018-11-02T08:15:40.642Z,95.50
2018-11-02T08:16:40.615Z,118.10
2018-11-02T08:17:40.659Z,110.40
2018-11-02T08:18:40.566Z,117.40
2018-11-02T08:19:40.667Z,122.80
2018-11-02T08:20:40.564Z,107.00
2018-11-02T08:21:40.543Z,113.70
2018-11-02T08:22:40.529Z,94.60
2018-11-02T08:23:40.529Z,91.00
2018-11-02T08:24:40.534Z,102.80
2018-11-02T08:25:40.513Z,108.10
2018-11-02T08:26:40.527Z,139.20
2018-11-02T08:27:40.502Z,98.30
2018-11-02T08:28:40.479Z,115.40
2018-11-02T08:29:40.494Z,101.20
2018-11-02T08:30:40.558Z,94.00
2018-11-02T08:31:40.479Z,111.80
2018-11-02T08:32:40.462Z,111.70
2018-11-02T08:33:40.471Z,105.10
2018-11-02T08:34:40.431Z,98.70
2018-11-02T08:35:40.428Z,100.20
2018-11-02T08:36:40.440Z,101.40
2018-11-02T08:37:40.439Z,103.10
2018-11-02T08:38:40.400Z,88.30
2018-11-02T08:39:40.393Z,87.10
2018-11-02T08:40:40.389Z,96.00
2018-11-02T08:41:40.379Z,104.90
2018-11-02T08:42:40.356Z,90.20
2018-11-02T08:43:40.341Z,101.00
2018-11-02T08:44:40.364Z,89.80
2018-11-02T08:45:40.328Z,118.80
2018-11-02T08:46:40.392Z,116.10
2018-11-02T08:47:40.319Z,114.60
2018-11-02T08:48:40.306Z,98.00
2018-11-02T08:49:40.300Z,119.80
2018-11-02T08:50:40.311Z,95.30
2018-11-02T08:51:40.286Z,92.60
2018-11-02T08:52:40.295Z,98.60
2018-11-02T08:53:40.322Z,113.80
2018-11-02T08:54:40.274Z,111.00
2018-11-02T08:55:40.275Z,98.20
2018-11-02T08:56:40.253Z,87.80
2018-11-02T08:57:40.569Z,94.00
2018-11-02T08:58:40.443Z,85.90
2018-11-02T08:59:40.278Z,100.20
2018-11-02T09:00:40.224Z,107.20
2018-11-02T09:01:40.203Z,95.20
2018-11-02T09:02:40.183Z,83.10
2018-11-02T09:03:40.227Z,80.70
2018-11-02T09:04:40.233Z,99.00
2018-11-02T09:05:40.152Z,93.70
2018-11-02T09:06:40.174Z,81.10
2018-11-02T09:07:40.142Z,93.20
2018-11-02T09:08:40.137Z,94.00
2018-11-02T09:09:40.133Z,94.70
2018-11-02T09:10:40.142Z,90.50
2018-11-02T09:11:40.123Z,107.90
2018-11-02T09:12:40.127Z,94.90
2018-11-02T09:13:40.112Z,100.00
2018-11-02T09:14:40.097Z,86.70
2018-11-02T09:15:40.076Z,85.40
2018-11-02T09:16:40.087Z,98.60
2018-11-02T09:17:40.060Z,89.90
2018-11-02T09:18:40.293Z,98.50
2018-11-02T09:19:40.069Z,109.20
2018-11-02T09:20:40.036Z,83.30
2018-11-02T09:21:40.045Z,106.00
2018-11-02T09:22:40.020Z,118.90
2018-11-02T09:23:40.022Z,102.80
2018-11-02T09:24:40.028Z,86.70
2018-11-02T09:25:40.001Z,107.20
2018-11-02T09:26:40.028Z,109.90
2018-11-02T09:27:40.057Z,109.30
2018-11-02T09:28:39.968Z,97.60
2018-11-02T09:29:39.945Z,99.20
2018-11-02T09:30:39.965Z,86.10
2018-11-02T09:31:39.953Z,86.10
2018-11-02T09:32:39.953Z,89.70
2018-11-02T09:33:39.944Z,86.60
2018-11-02T09:34:40.035Z,91.50
2018-11-02T09:35:39.906Z,88.40
2018-11-02T09:36:39.911Z,98.50
2018-11-02T09:37:39.895Z,89.10
2018-11-02T09:38:39.911Z,90.50
2018-11-02T09:39:39.889Z,82.00
2018-11-02T09:40:39.860Z,82.90
2018-11-02T09:41:39.865Z,85.30
2018-11-02T09:42:39.976Z,68.60
2018-11-02T09:43:39.827Z,91.00
2018-11-02T09:44:39.843Z,79.10
2018-11-02T09:45:40.072Z,96.80
2018-11-02T09:46:39.836Z,95.10
2018-11-02T09:47:39.817Z,80.70
2018-11-02T09:48:39.850Z,87.40
2018-11-02T09:49:39.804Z,90.90
2018-11-02T09:50:39.793Z,79.40
2018-11-02T09:51:39.933Z,75.20
2018-11-02T09:52:39.768Z,78.10
2018-11-02T09:53:39.753Z,76.40
2018-11-02T09:54:39.779Z,94.50
2018-11-02T09:55:39.758Z,84.30
2018-11-02T09:56:39.751Z,93.80
2018-11-02T09:57:39.806Z,77.20
2018-11-02T09:58:39.713Z,97.10
2018-11-02T09:59:39.697Z,75.90
2018-11-02T10:00:39.690Z,75.70
2018-11-02T10:01:39.720Z,83.60
2018-11-02T10:02:39.684Z,98.10
2018-11-02T10:03:39.701Z,86.20
2018-11-02T10:04:39.662Z,79.10
2018-11-02T10:05:39.655Z,75.70
2018-11-02T10:06:39.653Z,81.40
2018-11-02T10:07:39.738Z,83.10
2018-11-02T10:08:39.641Z,88.50
2018-11-02T10:09:39.629Z,66.60
2018-11-02T10:10:39.627Z,71.40
2018-11-02T10:11:39.614Z,91.60
2018-11-02T10:12:39.620Z,80.00
2018-11-02T10:13:39.694Z,78.40
2018-11-02T10:14:39.603Z,85.70
2018-11-02T10:15:39.582Z,75.90
2018-11-02T10:16:39.560Z,70.00
2018-11-02T10:17:39.553Z,77.40
2018-11-02T10:18:39.561Z,92.40
2018-11-02T10:19:39.586Z,67.40
2018-11-02T10:20:39.559Z,83.40
2018-11-02T10:21:39.542Z,76.00
2018-11-02T10:22:39.524Z,67.60
2018-11-02T10:23:39.595Z,72.00
2018-11-02T10:24:39.502Z,71.20
2018-11-02T10:25:39.512Z,67.90
2018-11-02T10:26:39.504Z,87.80
2018-11-02T10:27:39.539Z,61.20
2018-11-02T10:28:39.472Z,74.80
2018-11-02T10:29:39.486Z,60.90
2018-11-02T10:30:39.456Z,60.30
2018-11-02T10:31:39.481Z,63.20
2018-11-02T10:32:39.452Z,61.90
2018-11-02T10:33:39.435Z,59.40
2018-11-02T10:34:39.477Z,51.80
2018-11-02T10:35:39.535Z,55.40
2018-11-02T10:36:39.463Z,50.50
2018-11-02T10:37:39.388Z,56.10
2018-11-02T10:38:39.412Z,67.30
2018-11-02T10:39:39.425Z,62.20
2018-11-02T10:40:39.382Z,63.60
2018-11-02T10:41:39.381Z,64.70
2018-11-02T10:42:39.371Z,56.00
2018-11-02T10:43:39.354Z,54.60
2018-11-02T10:44:39.359Z,47.90
2018-11-02T10:45:39.343Z,52.90
2018-11-02T10:46:39.342Z,50.60
2018-11-02T10:47:39.345Z,57.30
2018-11-02T10:48:39.376Z,55.20
2018-11-02T10:49:39.404Z,54.60
2018-11-02T10:50:39.331Z,59.30
2018-11-02T10:51:39.311Z,69.60
2018-11-02T10:52:39.282Z,56.60
2018-11-02T10:53:39.346Z,52.30
2018-11-02T10:54:39.414Z,52.70
2018-11-02T10:55:39.305Z,59.90
2018-11-02T10:56:39.329Z,47.10
2018-11-02T10:57:39.257Z,53.10
2018-11-02T10:58:39.244Z,51.90
2018-11-02T10:59:39.247Z,50.00
2018-11-02T11:00:39.336Z,55.70
2018-11-02T11:01:39.239Z,63.60
2018-11-02T11:02:39.280Z,50.20
2018-11-02T11:03:39.222Z,45.90
2018-11-02T11:04:39.206Z,44.40
2018-11-02T11:05:39.199Z,42.30
2018-11-02T11:06:39.209Z,55.60
2018-11-02T11:07:39.206Z,51.20
2018-11-02T11:08:39.182Z,47.30
2018-11-02T11:09:39.181Z,37.80
2018-11-02T11:10:39.171Z,44.20
2018-11-02T11:11:39.283Z,49.20
2018-11-02T11:12:39.549Z,44.00
2018-11-02T11:13:39.468Z,40.00
2018-11-02T11:14:39.193Z,40.60
2018-11-02T11:15:39.130Z,42.90
2018-11-02T11:16:39.134Z,35.40
2018-11-02T11:17:39.168Z,28.50
2018-11-02T11:18:39.143Z,35.30
2018-11-02T11:19:39.122Z,41.00
2018-11-02T11:20:39.091Z,34.40
2018-11-02T11:21:39.089Z,39.70
2018-11-02T11:22:39.095Z,46.00
2018-11-02T11:23:39.085Z,44.50
2018-11-02T11:24:39.081Z,42.90
2018-11-02T11:25:39.066Z,30.30
2018-11-02T11:26:39.058Z,33.30
2018-11-02T11:27:39.061Z,41.60
2018-11-02T11:28:39.078Z,36.40
2018-11-02T11:29:39.020Z,39.60
2018-11-02T11:30:39.040Z,36.90
2018-11-02T11:31:39.031Z,29.90
2018-11-02T11:32:39.015Z,26.00
2018-11-02T11:33:39.011Z,27.20
2018-11-02T11:34:39.018Z,33.20
2018-11-02T11:35:39.012Z,28.30
2018-11-02T11:36:38.994Z,26.60
2018-11-02T11:37:39.000Z,31.50
2018-11-02T11:38:38.979Z,36.20
2018-11-02T11:39:38.984Z,32.20
2018-11-02T11:40:39.067Z,31.10
2018-11-02T11:41:38.948Z,26.30
2018-11-02T11:42:38.936Z,36.60
2018-11-02T11:43:38.958Z,26.70
2018-11-02T11:44:38.960Z,27.80
2018-11-02T11:45:38.940Z,24.30
2018-11-02T11:46:38.929Z,25.40
2018-11-02T11:47:38.908Z,27.20
2018-11-02T11:48:38.986Z,27.00
2018-11-02T11:49:38.912Z,27.40
2018-11-02T11:50:38.903Z,31.80
2018-11-02T11:51:38.901Z,31.50
2018-11-02T11:52:38.889Z,25.00
2018-11-02T11:53:38.893Z,25.00
2018-11-02T11:54:38.956Z,37.60
2018-11-02T11:55:38.874Z,32.20
2018-11-02T11:56:38.859Z,30.90
2018-11-02T11:57:38.848Z,35.80
2018-11-02T11:58:38.838Z,31.30
2018-11-02T11:59:38.852Z,32.30
2018-11-02T12:00:38.883Z,25.60
2018-11-02T12:01:38.836Z,30.90
2018-11-02T12:02:38.820Z,33.40
2018-11-02T12:03:38.796Z,29.40
2018-11-02T12:04:38.828Z,22.80
2018-11-02T12:05:38.846Z,23.30
2018-11-02T12:06:38.797Z,24.10
2018-11-02T12:07:38.830Z,25.40
2018-11-02T12:08:38.803Z,30.80
2018-11-02T12:09:38.778Z,25.20
2018-11-02T12:10:38.776Z,25.00
2018-11-02T12:11:38.786Z,21.90
2018-11-02T12:12:38.775Z,26.50
2018-11-02T12:13:38.769Z,22.00
2018-11-02T12:14:38.745Z,30.20
2018-11-02T12:15:38.754Z,23.00
2018-11-02T12:16:38.749Z,21.80
2018-11-02T12:17:38.724Z,27.50
2018-11-02T12:18:38.713Z,23.90
2018-11-02T12:19:38.759Z,22.30
2018-11-02T12:20:38.693Z,23.40
2018-11-02T12:21:38.817Z,22.40
2018-11-02T12:22:38.688Z,29.50
2018-11-02T12:23:38.679Z,28.50
2018-11-02T12:24:38.679Z,30.60
2018-11-02T12:25:38.680Z,32.60
2018-11-02T12:26:38.663Z,23.70
2018-11-02T12:27:38.657Z,21.60
2018-11-02T12:28:38.702Z,22.20
2018-11-02T12:29:38.654Z,22.50
2018-11-02T12:30:38.701Z,28.00
2018-11-02T12:31:38.636Z,21.00
2018-11-02T12:32:38.624Z,26.30
2018-11-02T12:33:38.652Z,24.20
2018-11-02T12:34:38.613Z,24.60
2018-11-02T12:35:38.621Z,30.60
2018-11-02T12:36:38.635Z,25.00
2018-11-02T12:37:38.599Z,29.10
2018-11-02T12:38:38.596Z,24.30
2018-11-02T12:39:38.602Z,21.50
2018-11-02T12:40:38.625Z,33.00
2018-11-02T12:41:38.566Z,29.40
2018-11-02T12:42:38.571Z,24.50
2018-11-02T12:43:38.783Z,25.40
2018-11-02T12:44:38.606Z,26.30
2018-11-02T12:45:38.603Z,28.20
2018-11-02T12:46:38.539Z,24.40